»·PEaware :: N122AJ KCWC-KAMA

N122AJ :: KCWC-KAMA

FLIGHT INFORMATION

Flight Status: Arrived
Operator: Privately registered:
United States
More flights under this callsign
Pilot: Anonymous 13363 (13363)
Aircraft: DEHAVILLAND DH-6 TWIN OTTER
(DHC6)
More flights by this aircraft type
Origin: KCWC
Destination: KAMA Amarillo Intl
United States
More flights between these airports :: More routes between these airports
Route: CDS V114 PNH
File this flight plan on PilotEdge
Remarks:
Altitude:
(Current/Filed)
16,000ft
Speed:
(Current/Filed)
220kts
Departed: 22-Jul-17 04:52 PM
Arrived: 22-Jul-17 06:00 PM
Distance/Time
Traveled:
Not Available
Distance/Time
To Go:
Arrived

Flight Plot

Page will automatically refresh every two minutes.

Flight plan parsing failed; only flown route is shown


Map Options




Map Legend


Flown Route
Filed Route
Departure Airport
Arrival Airport
Navaid (VOR, NDB)
Fix

Horizontal Profiles

Position Reports

Time Latitude Longitude Heading Altitude Ground
Speed
22-Jul-17 16:45 33.863448 -98.491875 0 983ft 0kts
22-Jul-17 16:46 33.863448 -98.491875 0 983ft 0kts
22-Jul-17 16:47 33.863448 -98.491875 0 983ft 0kts
22-Jul-17 16:48 33.863448 -98.491875 0 983ft 0kts
22-Jul-17 16:49 33.863448 -98.491875 0 983ft 0kts
22-Jul-17 16:50 33.863448 -98.491875 0 983ft 0kts
22-Jul-17 16:51 33.863448 -98.491875 0 983ft 0kts
22-Jul-17 16:52 33.863620 -98.491762 60 982ft 3kts
22-Jul-17 16:53 33.865835 -98.491154 359 979ft 22kts
22-Jul-17 16:54 33.866466 -98.490346 183 978ft 4kts
22-Jul-17 16:55 33.852470 -98.504354 280 2262ft 136kts
22-Jul-17 16:56 33.869659 -98.550421 297 4032ft 145kts
22-Jul-17 16:57 33.883060 -98.594219 293 5272ft 135kts
22-Jul-17 16:58 33.896470 -98.639670 294 6373ft 145kts
22-Jul-17 16:59 33.909338 -98.683448 294 7604ft 140kts
22-Jul-17 17:00 33.922230 -98.726926 295 8760ft 136kts
22-Jul-17 17:01 33.934897 -98.769622 293 9800ft 135kts
22-Jul-17 17:02 33.947411 -98.812095 292 10741ft 135kts
22-Jul-17 17:03 33.959780 -98.853942 289 11620ft 134kts
22-Jul-17 17:04 33.972086 -98.896792 290 12380ft 136kts
22-Jul-17 17:05 33.984458 -98.938743 288 13063ft 138kts
22-Jul-17 17:06 33.997328 -98.982865 287 13708ft 141kts
22-Jul-17 17:07 34.010411 -99.027962 286 14308ft 145kts
22-Jul-17 17:08 34.023770 -99.074108 286 14897ft 148kts
22-Jul-17 17:09 34.037514 -99.121635 286 15444ft 151kts
22-Jul-17 17:10 34.051412 -99.169724 286 15970ft 152kts
22-Jul-17 17:11 34.065031 -99.220388 282 16023ft 166kts
22-Jul-17 17:12 34.080890 -99.274454 288 15878ft 170kts
22-Jul-17 17:13 34.096837 -99.327612 286 15876ft 168kts
22-Jul-17 17:14 34.112025 -99.380058 286 15877ft 169kts
22-Jul-17 17:15 34.127432 -99.433715 286 15880ft 170kts
22-Jul-17 17:16 34.142947 -99.487829 286 15886ft 170kts
22-Jul-17 17:17 34.158397 -99.541862 286 15894ft 170kts
22-Jul-17 17:18 34.173795 -99.595904 286 15905ft 170kts
22-Jul-17 17:19 34.189240 -99.650175 285 15921ft 173kts
22-Jul-17 17:20 34.204660 -99.704394 286 15935ft 174kts
22-Jul-17 17:21 34.220358 -99.759653 286 15946ft 174kts
22-Jul-17 17:22 34.236082 -99.815163 286 15955ft 174kts
22-Jul-17 17:23 34.251723 -99.870528 286 15959ft 175kts
22-Jul-17 17:24 34.267445 -99.926271 286 15958ft 175kts
22-Jul-17 17:25 34.283112 -99.981909 286 15958ft 175kts
22-Jul-17 17:26 34.298722 -100.037465 285 15957ft 174kts
22-Jul-17 17:27 34.314420 -100.093478 286 15959ft 177kts
22-Jul-17 17:28 34.330206 -100.149921 286 15958ft 177kts
22-Jul-17 17:29 34.345931 -100.206199 286 15958ft 177kts
22-Jul-17 17:30 34.361664 -100.262627 286 15958ft 177kts
22-Jul-17 17:31 34.385206 -100.314568 304 15959ft 179kts
22-Jul-17 17:32 34.415141 -100.362731 304 15958ft 179kts
22-Jul-17 17:33 34.445241 -100.410935 304 15958ft 179kts
22-Jul-17 17:34 34.475357 -100.459193 304 15958ft 179kts
22-Jul-17 17:35 34.505444 -100.507475 304 15958ft 179kts
22-Jul-17 17:36 34.535526 -100.555835 304 15958ft 179kts
22-Jul-17 17:37 34.565620 -100.604258 304 15958ft 179kts
22-Jul-17 17:38 34.595553 -100.652485 304 15958ft 179kts
22-Jul-17 17:39 34.625513 -100.700843 303 15959ft 180kts
22-Jul-17 17:40 34.655547 -100.749372 304 15959ft 180kts
22-Jul-17 17:41 34.685494 -100.797833 304 15959ft 180kts
22-Jul-17 17:42 34.715470 -100.846457 304 15959ft 180kts
22-Jul-17 17:43 34.745417 -100.895060 304 15963ft 179kts
22-Jul-17 17:44 34.775725 -100.944873 302 15439ft 201kts
22-Jul-17 17:45 34.805494 -101.000108 317 14819ft 200kts
22-Jul-17 17:46 34.839678 -101.052690 306 14139ft 195kts
22-Jul-17 17:47 34.871594 -101.104043 305 12690ft 190kts
22-Jul-17 17:48 34.901131 -101.152726 304 11848ft 168kts
22-Jul-17 17:49 34.929411 -101.198223 306 12020ft 173kts
22-Jul-17 17:50 34.958596 -101.245589 306 12020ft 175kts
22-Jul-17 17:51 34.988056 -101.293640 307 11848ft 181kts
22-Jul-17 17:52 35.017798 -101.342189 307 11387ft 173kts
22-Jul-17 17:53 35.047026 -101.390020 307 10310ft 179kts
22-Jul-17 17:54 35.076780 -101.438690 307 9282ft 178kts
22-Jul-17 17:55 35.105891 -101.486407 307 8354ft 177kts
22-Jul-17 17:56 35.144209 -101.523856 326 7832ft 178kts
22-Jul-17 17:57 35.184438 -101.557587 326 7467ft 171kts
22-Jul-17 17:58 35.216052 -101.585625 319 7130ft 157kts
22-Jul-17 17:59 35.243834 -101.620139 311 5628ft 140kts
22-Jul-17 18:00 35.252013 -101.657662 256 4809ft 92kts
22-Jul-17 18:01 35.242161 -101.685148 229 4249ft 93kts
22-Jul-17 18:02 35.227508 -101.705213 226 3604ft 41kts
22-Jul-17 18:03 35.224372 -101.705988 138 3604ft 6kts
22-Jul-17 18:04 35.221233 -101.708009 225 3604ft 22kts
22-Jul-17 18:05 35.217801 -101.709635 111 3604ft 9kts
22-Jul-17 18:06 35.217482 -101.709810 317 3604ft 0kts
22-Jul-17 18:07 35.217482 -101.709810 317 3604ft 0kts
22-Jul-17 18:08 35.217482 -101.709810 317 3604ft 0kts
22-Jul-17 18:09 35.217482 -101.709810 317 3604ft 0kts

Navigation Log

Ident Type
Flight plan parsing failed, navigation log unavailable